sensor_id;sensor_type;location;lat;lon;timestamp;P1;durP1;ratioP1;P2;durP2;ratioP2
2031;SDS011;27625;50.422;7.944;2023-12-20T00:02:46;1.80;;;1.40;;
2031;SDS011;27625;50.422;7.944;2023-12-20T00:05:13;4.10;;;1.60;;
2031;SDS011;27625;50.422;7.944;2023-12-20T00:07:40;2.87;;;1.60;;
2031;SDS011;27625;50.422;7.944;2023-12-20T00:10:08;2.50;;;1.53;;
2031;SDS011;27625;50.422;7.944;2023-12-20T00:12:37;2.20;;;1.70;;
2031;SDS011;27625;50.422;7.944;2023-12-20T00:15:04;2.93;;;1.80;;
2031;SDS011;27625;50.422;7.944;2023-12-20T00:17:34;2.50;;;1.87;;
2031;SDS011;27625;50.422;7.944;2023-12-20T00:20:02;2.30;;;1.57;;
2031;SDS011;27625;50.422;7.944;2023-12-20T00:22:29;2.43;;;1.80;;
2031;SDS011;27625;50.422;7.944;2023-12-20T00:24:55;2.80;;;1.93;;
2031;SDS011;27625;50.422;7.944;2023-12-20T00:27:23;2.43;;;1.60;;
2031;SDS011;27625;50.422;7.944;2023-12-20T00:29:50;4.10;;;1.90;;
2031;SDS011;27625;50.422;7.944;2023-12-20T00:32:17;3.43;;;2.20;;
2031;SDS011;27625;50.422;7.944;2023-12-20T00:34:47;5.00;;;3.43;;
2031;SDS011;27625;50.422;7.944;2023-12-20T00:37:17;6.67;;;3.27;;
2031;SDS011;27625;50.422;7.944;2023-12-20T00:39:46;4.60;;;3.13;;
2031;SDS011;27625;50.422;7.944;2023-12-20T00:42:14;4.97;;;3.57;;
2031;SDS011;27625;50.422;7.944;2023-12-20T00:44:42;4.83;;;3.57;;
2031;SDS011;27625;50.422;7.944;2023-12-20T00:47:08;3.80;;;2.50;;
2031;SDS011;27625;50.422;7.944;2023-12-20T00:49:36;4.50;;;2.93;;
2031;SDS011;27625;50.422;7.944;2023-12-20T00:52:05;4.10;;;3.07;;
2031;SDS011;27625;50.422;7.944;2023-12-20T00:54:33;4.00;;;3.30;;
2031;SDS011;27625;50.422;7.944;2023-12-20T00:57:00;5.20;;;3.37;;
2031;SDS011;27625;50.422;7.944;2023-12-20T00:59:28;3.20;;;2.30;;
2031;SDS011;27625;50.422;7.944;2023-12-20T01:01:55;7.00;;;2.73;;
2031;SDS011;27625;50.422;7.944;2023-12-20T01:04:23;3.53;;;2.30;;
2031;SDS011;27625;50.422;7.944;2023-12-20T01:06:52;3.57;;;2.30;;
2031;SDS011;27625;50.422;7.944;2023-12-20T01:09:20;2.90;;;1.90;;
2031;SDS011;27625;50.422;7.944;2023-12-20T01:11:48;2.40;;;1.83;;
2031;SDS011;27625;50.422;7.944;2023-12-20T01:16:47;2.70;;;1.90;;
2031;SDS011;27625;50.422;7.944;2023-12-20T01:19:16;4.53;;;2.60;;
2031;SDS011;27625;50.422;7.944;2023-12-20T01:21:43;3.80;;;2.37;;
2031;SDS011;27625;50.422;7.944;2023-12-20T01:24:09;2.87;;;2.10;;
2031;SDS011;27625;50.422;7.944;2023-12-20T01:26:38;3.10;;;2.00;;
2031;SDS011;27625;50.422;7.944;2023-12-20T01:29:04;3.60;;;2.60;;
2031;SDS011;27625;50.422;7.944;2023-12-20T01:31:41;3.13;;;2.20;;
2031;SDS011;27625;50.422;7.944;2023-12-20T01:34:08;3.70;;;2.50;;
2031;SDS011;27625;50.422;7.944;2023-12-20T01:36:35;3.50;;;2.03;;
2031;SDS011;27625;50.422;7.944;2023-12-20T01:39:02;2.40;;;1.77;;
2031;SDS011;27625;50.422;7.944;2023-12-20T01:41:29;3.53;;;2.50;;
2031;SDS011;27625;50.422;7.944;2023-12-20T01:43:58;3.40;;;2.33;;
2031;SDS011;27625;50.422;7.944;2023-12-20T01:46:25;3.30;;;2.43;;
2031;SDS011;27625;50.422;7.944;2023-12-20T01:48:52;3.33;;;2.40;;
2031;SDS011;27625;50.422;7.944;2023-12-20T01:51:25;4.30;;;2.80;;
2031;SDS011;27625;50.422;7.944;2023-12-20T01:53:54;2.70;;;2.30;;
2031;SDS011;27625;50.422;7.944;2023-12-20T01:56:24;4.17;;;3.30;;
2031;SDS011;27625;50.422;7.944;2023-12-20T01:58:52;3.80;;;2.60;;
2031;SDS011;27625;50.422;7.944;2023-12-20T02:01:20;5.40;;;3.07;;
2031;SDS011;27625;50.422;7.944;2023-12-20T02:03:47;4.43;;;3.10;;
2031;SDS011;27625;50.422;7.944;2023-12-20T02:06:13;5.37;;;3.80;;
2031;SDS011;27625;50.422;7.944;2023-12-20T02:08:46;3.77;;;2.77;;
2031;SDS011;27625;50.422;7.944;2023-12-20T02:11:20;3.67;;;2.87;;
2031;SDS011;27625;50.422;7.944;2023-12-20T02:13:53;4.90;;;3.33;;
2031;SDS011;27625;50.422;7.944;2023-12-20T02:16:22;4.37;;;2.57;;
2031;SDS011;27625;50.422;7.944;2023-12-20T02:18:49;3.80;;;2.87;;
2031;SDS011;27625;50.422;7.944;2023-12-20T02:21:16;4.00;;;2.53;;
2031;SDS011;27625;50.422;7.944;2023-12-20T02:23:44;2.90;;;2.47;;
2031;SDS011;27625;50.422;7.944;2023-12-20T02:26:11;2.43;;;1.90;;
2031;SDS011;27625;50.422;7.944;2023-12-20T02:28:39;3.87;;;3.00;;
2031;SDS011;27625;50.422;7.944;2023-12-20T02:31:05;3.17;;;2.33;;
2031;SDS011;27625;50.422;7.944;2023-12-20T02:33:32;3.10;;;2.30;;
2031;SDS011;27625;50.422;7.944;2023-12-20T02:35:59;3.60;;;2.50;;
2031;SDS011;27625;50.422;7.944;2023-12-20T02:38:25;3.17;;;2.20;;
2031;SDS011;27625;50.422;7.944;2023-12-20T02:41:03;2.90;;;2.40;;
2031;SDS011;27625;50.422;7.944;2023-12-20T02:43:29;2.90;;;2.17;;
2031;SDS011;27625;50.422;7.944;2023-12-20T02:45:56;3.27;;;2.10;;
2031;SDS011;27625;50.422;7.944;2023-12-20T02:48:23;2.67;;;1.77;;
2031;SDS011;27625;50.422;7.944;2023-12-20T02:50:51;3.03;;;1.90;;
2031;SDS011;27625;50.422;7.944;2023-12-20T02:53:18;2.87;;;2.10;;
2031;SDS011;27625;50.422;7.944;2023-12-20T02:55:45;2.40;;;1.50;;
2031;SDS011;27625;50.422;7.944;2023-12-20T02:58:15;3.60;;;1.80;;
2031;SDS011;27625;50.422;7.944;2023-12-20T03:00:43;3.10;;;2.00;;
2031;SDS011;27625;50.422;7.944;2023-12-20T03:03:12;4.17;;;2.10;;
2031;SDS011;27625;50.422;7.944;2023-12-20T03:05:39;2.60;;;1.90;;
2031;SDS011;27625;50.422;7.944;2023-12-20T03:08:06;4.17;;;2.67;;
2031;SDS011;27625;50.422;7.944;2023-12-20T03:10:35;3.50;;;2.23;;
2031;SDS011;27625;50.422;7.944;2023-12-20T03:13:07;5.77;;;3.60;;
2031;SDS011;27625;50.422;7.944;2023-12-20T03:15:37;6.50;;;3.13;;
2031;SDS011;27625;50.422;7.944;2023-12-20T03:18:06;3.70;;;2.40;;
2031;SDS011;27625;50.422;7.944;2023-12-20T03:20:34;4.17;;;2.70;;
2031;SDS011;27625;50.422;7.944;2023-12-20T03:23:09;4.63;;;3.03;;
2031;SDS011;27625;50.422;7.944;2023-12-20T03:25:47;6.93;;;4.10;;
2031;SDS011;27625;50.422;7.944;2023-12-20T03:28:14;5.67;;;4.13;;
2031;SDS011;27625;50.422;7.944;2023-12-20T03:30:42;6.57;;;4.20;;
2031;SDS011;27625;50.422;7.944;2023-12-20T03:33:10;9.10;;;4.93;;
2031;SDS011;27625;50.422;7.944;2023-12-20T03:35:38;8.50;;;4.63;;
2031;SDS011;27625;50.422;7.944;2023-12-20T03:38:08;9.30;;;5.37;;
2031;SDS011;27625;50.422;7.944;2023-12-20T03:40:35;8.50;;;5.87;;
2031;SDS011;27625;50.422;7.944;2023-12-20T03:43:05;8.27;;;5.33;;
2031;SDS011;27625;50.422;7.944;2023-12-20T03:45:34;8.23;;;5.20;;
2031;SDS011;27625;50.422;7.944;2023-12-20T03:48:07;10.40;;;6.13;;
2031;SDS011;27625;50.422;7.944;2023-12-20T03:50:35;8.67;;;5.70;;
2031;SDS011;27625;50.422;7.944;2023-12-20T03:53:04;10.07;;;5.47;;
2031;SDS011;27625;50.422;7.944;2023-12-20T03:55:34;8.13;;;4.13;;
2031;SDS011;27625;50.422;7.944;2023-12-20T03:58:02;9.37;;;4.70;;
2031;SDS011;27625;50.422;7.944;2023-12-20T04:00:32;6.30;;;4.27;;
2031;SDS011;27625;50.422;7.944;2023-12-20T04:02:59;9.53;;;4.40;;
2031;SDS011;27625;50.422;7.944;2023-12-20T04:05:29;8.40;;;4.33;;
2031;SDS011;27625;50.422;7.944;2023-12-20T04:07:57;7.53;;;3.60;;
2031;SDS011;27625;50.422;7.944;2023-12-20T04:10:30;7.20;;;4.13;;
2031;SDS011;27625;50.422;7.944;2023-12-20T04:13:03;7.30;;;3.63;;
2031;SDS011;27625;50.422;7.944;2023-12-20T04:15:31;6.40;;;3.60;;
2031;SDS011;27625;50.422;7.944;2023-12-20T04:17:58;15.43;;;3.80;;
2031;SDS011;27625;50.422;7.944;2023-12-20T04:22:57;9.67;;;3.10;;
2031;SDS011;27625;50.422;7.944;2023-12-20T04:25:24;6.00;;;3.30;;
2031;SDS011;27625;50.422;7.944;2023-12-20T04:27:51;5.50;;;2.70;;
2031;SDS011;27625;50.422;7.944;2023-12-20T04:30:18;3.73;;;2.40;;
2031;SDS011;27625;50.422;7.944;2023-12-20T04:32:45;9.07;;;2.60;;
2031;SDS011;27625;50.422;7.944;2023-12-20T04:35:12;4.80;;;2.70;;
2031;SDS011;27625;50.422;7.944;2023-12-20T04:37:47;4.07;;;1.87;;
2031;SDS011;27625;50.422;7.944;2023-12-20T04:42:51;7.40;;;2.43;;
2031;SDS011;27625;50.422;7.944;2023-12-20T04:45:23;3.37;;;2.33;;
2031;SDS011;27625;50.422;7.944;2023-12-20T04:47:52;6.33;;;2.30;;
2031;SDS011;27625;50.422;7.944;2023-12-20T04:50:19;6.40;;;3.40;;
2031;SDS011;27625;50.422;7.944;2023-12-20T04:52:50;7.10;;;2.70;;
2031;SDS011;27625;50.422;7.944;2023-12-20T04:55:19;5.60;;;2.80;;
2031;SDS011;27625;50.422;7.944;2023-12-20T04:57:48;6.83;;;3.00;;
2031;SDS011;27625;50.422;7.944;2023-12-20T05:00:17;7.90;;;2.97;;
2031;SDS011;27625;50.422;7.944;2023-12-20T05:02:45;4.10;;;2.30;;
2031;SDS011;27625;50.422;7.944;2023-12-20T05:05:13;7.70;;;2.97;;
2031;SDS011;27625;50.422;7.944;2023-12-20T05:07:41;6.37;;;2.60;;
2031;SDS011;27625;50.422;7.944;2023-12-20T05:10:19;13.83;;;4.37;;
2031;SDS011;27625;50.422;7.944;2023-12-20T05:12:46;4.50;;;3.20;;
2031;SDS011;27625;50.422;7.944;2023-12-20T05:15:13;8.03;;;2.97;;
2031;SDS011;27625;50.422;7.944;2023-12-20T05:17:40;8.40;;;2.70;;
2031;SDS011;27625;50.422;7.944;2023-12-20T05:20:08;5.27;;;2.63;;
2031;SDS011;27625;50.422;7.944;2023-12-20T05:22:35;8.60;;;3.30;;
2031;SDS011;27625;50.422;7.944;2023-12-20T05:25:03;4.13;;;2.53;;
2031;SDS011;27625;50.422;7.944;2023-12-20T05:27:33;6.10;;;3.37;;
2031;SDS011;27625;50.422;7.944;2023-12-20T05:29:59;5.73;;;3.33;;
2031;SDS011;27625;50.422;7.944;2023-12-20T05:32:28;8.00;;;2.93;;
2031;SDS011;27625;50.422;7.944;2023-12-20T05:34:55;6.27;;;2.63;;
2031;SDS011;27625;50.422;7.944;2023-12-20T05:37:22;4.53;;;2.50;;
2031;SDS011;27625;50.422;7.944;2023-12-20T05:39:50;7.30;;;2.63;;
2031;SDS011;27625;50.422;7.944;2023-12-20T05:42:18;5.27;;;3.17;;
2031;SDS011;27625;50.422;7.944;2023-12-20T05:44:52;17.93;;;2.97;;
2031;SDS011;27625;50.422;7.944;2023-12-20T05:47:23;9.30;;;2.57;;
2031;SDS011;27625;50.422;7.944;2023-12-20T05:49:50;4.60;;;2.30;;
2031;SDS011;27625;50.422;7.944;2023-12-20T05:52:17;12.00;;;3.20;;
2031;SDS011;27625;50.422;7.944;2023-12-20T05:54:44;8.40;;;3.63;;
2031;SDS011;27625;50.422;7.944;2023-12-20T05:57:10;6.23;;;2.40;;
2031;SDS011;27625;50.422;7.944;2023-12-20T05:59:37;11.53;;;2.70;;
2031;SDS011;27625;50.422;7.944;2023-12-20T06:02:08;11.50;;;2.90;;
2031;SDS011;27625;50.422;7.944;2023-12-20T06:04:40;6.47;;;3.00;;
2031;SDS011;27625;50.422;7.944;2023-12-20T06:07:11;4.53;;;2.73;;
2031;SDS011;27625;50.422;7.944;2023-12-20T06:09:38;4.43;;;2.70;;
2031;SDS011;27625;50.422;7.944;2023-12-20T06:12:06;4.70;;;2.73;;
2031;SDS011;27625;50.422;7.944;2023-12-20T06:14:34;4.73;;;2.50;;
2031;SDS011;27625;50.422;7.944;2023-12-20T06:17:02;4.63;;;3.00;;
2031;SDS011;27625;50.422;7.944;2023-12-20T06:19:32;8.67;;;5.50;;
2031;SDS011;27625;50.422;7.944;2023-12-20T06:21:58;5.43;;;2.67;;
2031;SDS011;27625;50.422;7.944;2023-12-20T06:24:25;9.50;;;4.00;;
2031;SDS011;27625;50.422;7.944;2023-12-20T06:26:53;5.00;;;2.47;;
2031;SDS011;27625;50.422;7.944;2023-12-20T06:29:21;4.90;;;3.63;;
2031;SDS011;27625;50.422;7.944;2023-12-20T06:31:47;4.47;;;2.60;;
2031;SDS011;27625;50.422;7.944;2023-12-20T06:34:14;9.90;;;3.07;;
2031;SDS011;27625;50.422;7.944;2023-12-20T06:36:42;6.10;;;3.27;;
2031;SDS011;27625;50.422;7.944;2023-12-20T06:39:09;8.03;;;3.70;;
2031;SDS011;27625;50.422;7.944;2023-12-20T06:41:37;6.03;;;2.57;;
2031;SDS011;27625;50.422;7.944;2023-12-20T06:44:05;7.93;;;3.63;;
2031;SDS011;27625;50.422;7.944;2023-12-20T06:46:33;7.30;;;3.30;;
2031;SDS011;27625;50.422;7.944;2023-12-20T06:49:00;7.83;;;2.83;;
2031;SDS011;27625;50.422;7.944;2023-12-20T06:51:34;7.47;;;3.50;;
2031;SDS011;27625;50.422;7.944;2023-12-20T06:54:03;5.30;;;3.60;;
2031;SDS011;27625;50.422;7.944;2023-12-20T06:56:30;5.57;;;3.00;;
2031;SDS011;27625;50.422;7.944;2023-12-20T06:58:57;9.17;;;3.20;;
2031;SDS011;27625;50.422;7.944;2023-12-20T07:01:24;9.13;;;3.10;;
2031;SDS011;27625;50.422;7.944;2023-12-20T07:03:54;4.50;;;3.40;;
2031;SDS011;27625;50.422;7.944;2023-12-20T07:06:21;7.30;;;3.03;;
2031;SDS011;27625;50.422;7.944;2023-12-20T07:08:49;7.53;;;3.30;;
2031;SDS011;27625;50.422;7.944;2023-12-20T07:13:49;12.40;;;3.60;;
2031;SDS011;27625;50.422;7.944;2023-12-20T07:16:18;12.60;;;3.53;;
2031;SDS011;27625;50.422;7.944;2023-12-20T07:18:45;8.10;;;3.40;;
2031;SDS011;27625;50.422;7.944;2023-12-20T07:21:18;6.23;;;2.80;;
2031;SDS011;27625;50.422;7.944;2023-12-20T07:23:52;6.13;;;4.13;;
2031;SDS011;27625;50.422;7.944;2023-12-20T07:26:21;4.70;;;3.53;;
2031;SDS011;27625;50.422;7.944;2023-12-20T07:28:48;8.43;;;4.67;;
2031;SDS011;27625;50.422;7.944;2023-12-20T07:31:19;6.13;;;2.47;;
2031;SDS011;27625;50.422;7.944;2023-12-20T07:33:46;5.40;;;3.30;;
2031;SDS011;27625;50.422;7.944;2023-12-20T07:36:17;11.43;;;3.20;;
2031;SDS011;27625;50.422;7.944;2023-12-20T07:38:44;6.17;;;3.03;;
2031;SDS011;27625;50.422;7.944;2023-12-20T07:41:10;7.83;;;3.40;;
2031;SDS011;27625;50.422;7.944;2023-12-20T07:46:15;6.30;;;3.63;;
2031;SDS011;27625;50.422;7.944;2023-12-20T07:48:43;8.10;;;3.47;;
2031;SDS011;27625;50.422;7.944;2023-12-20T07:51:11;9.23;;;3.50;;
2031;SDS011;27625;50.422;7.944;2023-12-20T07:53:38;3.73;;;2.30;;
2031;SDS011;27625;50.422;7.944;2023-12-20T07:56:15;7.03;;;3.60;;
2031;SDS011;27625;50.422;7.944;2023-12-20T07:58:44;10.37;;;3.17;;
2031;SDS011;27625;50.422;7.944;2023-12-20T08:01:11;8.17;;;4.40;;
2031;SDS011;27625;50.422;7.944;2023-12-20T08:03:38;10.20;;;6.10;;
2031;SDS011;27625;50.422;7.944;2023-12-20T08:06:06;6.00;;;3.97;;
2031;SDS011;27625;50.422;7.944;2023-12-20T08:08:33;5.40;;;3.63;;
2031;SDS011;27625;50.422;7.944;2023-12-20T08:10:59;13.70;;;6.27;;
2031;SDS011;27625;50.422;7.944;2023-12-20T08:13:29;12.17;;;7.13;;
2031;SDS011;27625;50.422;7.944;2023-12-20T08:15:57;9.23;;;4.70;;
2031;SDS011;27625;50.422;7.944;2023-12-20T08:18:29;9.20;;;4.90;;
2031;SDS011;27625;50.422;7.944;2023-12-20T08:20:56;14.33;;;5.70;;
2031;SDS011;27625;50.422;7.944;2023-12-20T08:23:23;11.17;;;5.77;;
2031;SDS011;27625;50.422;7.944;2023-12-20T08:25:50;7.80;;;4.50;;
2031;SDS011;27625;50.422;7.944;2023-12-20T08:28:16;10.47;;;4.87;;
2031;SDS011;27625;50.422;7.944;2023-12-20T08:30:46;7.03;;;3.30;;
2031;SDS011;27625;50.422;7.944;2023-12-20T08:33:20;6.17;;;3.10;;
2031;SDS011;27625;50.422;7.944;2023-12-20T08:35:47;8.37;;;2.97;;
2031;SDS011;27625;50.422;7.944;2023-12-20T08:38:15;4.17;;;3.00;;
2031;SDS011;27625;50.422;7.944;2023-12-20T08:40:43;6.60;;;2.47;;
2031;SDS011;27625;50.422;7.944;2023-12-20T08:43:09;7.50;;;2.60;;
2031;SDS011;27625;50.422;7.944;2023-12-20T08:45:37;8.63;;;3.23;;
2031;SDS011;27625;50.422;7.944;2023-12-20T08:48:07;6.63;;;2.80;;
2031;SDS011;27625;50.422;7.944;2023-12-20T08:50:37;5.00;;;2.90;;
2031;SDS011;27625;50.422;7.944;2023-12-20T08:53:05;11.50;;;4.83;;
2031;SDS011;27625;50.422;7.944;2023-12-20T08:55:33;10.07;;;3.87;;
2031;SDS011;27625;50.422;7.944;2023-12-20T08:58:00;10.03;;;3.90;;
2031;SDS011;27625;50.422;7.944;2023-12-20T09:00:28;7.03;;;3.73;;
2031;SDS011;27625;50.422;7.944;2023-12-20T09:02:56;8.20;;;2.90;;
2031;SDS011;27625;50.422;7.944;2023-12-20T09:05:24;9.93;;;3.50;;
2031;SDS011;27625;50.422;7.944;2023-12-20T09:07:58;6.07;;;3.23;;
2031;SDS011;27625;50.422;7.944;2023-12-20T09:10:24;7.40;;;3.60;;
2031;SDS011;27625;50.422;7.944;2023-12-20T09:12:51;6.07;;;3.30;;
2031;SDS011;27625;50.422;7.944;2023-12-20T09:15:22;6.73;;;3.27;;
2031;SDS011;27625;50.422;7.944;2023-12-20T09:17:50;12.77;;;4.23;;
2031;SDS011;27625;50.422;7.944;2023-12-20T09:20:18;6.77;;;3.60;;
2031;SDS011;27625;50.422;7.944;2023-12-20T09:22:47;9.07;;;4.47;;
2031;SDS011;27625;50.422;7.944;2023-12-20T09:25:15;10.17;;;4.97;;
2031;SDS011;27625;50.422;7.944;2023-12-20T09:27:43;10.53;;;4.60;;
2031;SDS011;27625;50.422;7.944;2023-12-20T09:30:10;9.33;;;3.70;;
2031;SDS011;27625;50.422;7.944;2023-12-20T09:32:38;6.23;;;3.50;;
2031;SDS011;27625;50.422;7.944;2023-12-20T09:35:05;6.87;;;3.10;;
2031;SDS011;27625;50.422;7.944;2023-12-20T09:37:35;7.53;;;4.27;;
2031;SDS011;27625;50.422;7.944;2023-12-20T09:40:08;4.40;;;2.50;;
2031;SDS011;27625;50.422;7.944;2023-12-20T09:42:47;7.17;;;3.50;;
2031;SDS011;27625;50.422;7.944;2023-12-20T09:45:16;7.17;;;3.97;;
2031;SDS011;27625;50.422;7.944;2023-12-20T09:47:46;4.63;;;3.00;;
2031;SDS011;27625;50.422;7.944;2023-12-20T09:50:14;11.33;;;4.17;;
2031;SDS011;27625;50.422;7.944;2023-12-20T09:52:41;10.07;;;3.93;;
2031;SDS011;27625;50.422;7.944;2023-12-20T09:55:08;6.30;;;4.30;;
2031;SDS011;27625;50.422;7.944;2023-12-20T09:57:36;12.73;;;3.90;;
2031;SDS011;27625;50.422;7.944;2023-12-20T10:00:05;11.07;;;4.10;;
2031;SDS011;27625;50.422;7.944;2023-12-20T10:02:37;13.37;;;3.93;;
2031;SDS011;27625;50.422;7.944;2023-12-20T10:05:10;7.80;;;3.50;;
2031;SDS011;27625;50.422;7.944;2023-12-20T10:07:46;10.77;;;3.63;;
2031;SDS011;27625;50.422;7.944;2023-12-20T10:10:13;12.57;;;4.23;;
2031;SDS011;27625;50.422;7.944;2023-12-20T10:12:42;10.20;;;4.50;;
2031;SDS011;27625;50.422;7.944;2023-12-20T10:15:28;11.90;;;5.37;;
2031;SDS011;27625;50.422;7.944;2023-12-20T10:20:30;9.77;;;4.37;;
2031;SDS011;27625;50.422;7.944;2023-12-20T10:22:59;9.77;;;5.10;;
2031;SDS011;27625;50.422;7.944;2023-12-20T10:25:27;8.70;;;4.00;;
2031;SDS011;27625;50.422;7.944;2023-12-20T10:28:08;7.10;;;3.70;;
2031;SDS011;27625;50.422;7.944;2023-12-20T10:30:37;7.60;;;3.60;;
2031;SDS011;27625;50.422;7.944;2023-12-20T10:33:05;6.03;;;3.43;;
2031;SDS011;27625;50.422;7.944;2023-12-20T10:35:33;5.10;;;3.60;;
2031;SDS011;27625;50.422;7.944;2023-12-20T10:38:03;8.90;;;3.80;;
2031;SDS011;27625;50.422;7.944;2023-12-20T10:40:34;5.97;;;4.00;;
2031;SDS011;27625;50.422;7.944;2023-12-20T10:43:05;7.70;;;3.67;;
2031;SDS011;27625;50.422;7.944;2023-12-20T10:45:32;6.13;;;3.50;;
2031;SDS011;27625;50.422;7.944;2023-12-20T10:48:01;7.10;;;3.93;;
2031;SDS011;27625;50.422;7.944;2023-12-20T10:50:29;6.07;;;3.30;;
2031;SDS011;27625;50.422;7.944;2023-12-20T10:52:56;8.10;;;3.40;;
2031;SDS011;27625;50.422;7.944;2023-12-20T10:55:30;5.70;;;3.80;;
2031;SDS011;27625;50.422;7.944;2023-12-20T10:58:00;5.53;;;3.23;;
2031;SDS011;27625;50.422;7.944;2023-12-20T11:00:28;5.90;;;2.80;;
2031;SDS011;27625;50.422;7.944;2023-12-20T11:02:57;13.47;;;4.43;;
2031;SDS011;27625;50.422;7.944;2023-12-20T11:05:31;4.77;;;2.97;;
2031;SDS011;27625;50.422;7.944;2023-12-20T11:08:06;5.27;;;3.20;;
2031;SDS011;27625;50.422;7.944;2023-12-20T11:10:37;6.23;;;3.53;;
2031;SDS011;27625;50.422;7.944;2023-12-20T11:13:10;7.87;;;2.90;;
2031;SDS011;27625;50.422;7.944;2023-12-20T11:15:42;5.87;;;3.30;;
2031;SDS011;27625;50.422;7.944;2023-12-20T11:18:09;6.33;;;3.50;;
2031;SDS011;27625;50.422;7.944;2023-12-20T11:20:46;7.17;;;4.20;;
2031;SDS011;27625;50.422;7.944;2023-12-20T11:23:19;8.70;;;4.40;;
2031;SDS011;27625;50.422;7.944;2023-12-20T11:25:48;5.70;;;3.73;;
2031;SDS011;27625;50.422;7.944;2023-12-20T11:28:20;9.57;;;4.57;;
2031;SDS011;27625;50.422;7.944;2023-12-20T11:30:48;8.70;;;3.13;;
2031;SDS011;27625;50.422;7.944;2023-12-20T11:33:16;4.50;;;3.50;;
2031;SDS011;27625;50.422;7.944;2023-12-20T11:35:46;7.43;;;3.20;;
2031;SDS011;27625;50.422;7.944;2023-12-20T11:38:20;13.53;;;4.07;;
2031;SDS011;27625;50.422;7.944;2023-12-20T11:40:47;5.70;;;3.57;;
2031;SDS011;27625;50.422;7.944;2023-12-20T11:43:23;3.90;;;2.77;;
2031;SDS011;27625;50.422;7.944;2023-12-20T11:46:00;7.63;;;3.20;;
2031;SDS011;27625;50.422;7.944;2023-12-20T11:48:29;8.63;;;2.93;;
2031;SDS011;27625;50.422;7.944;2023-12-20T11:51:02;5.27;;;2.83;;
2031;SDS011;27625;50.422;7.944;2023-12-20T11:53:29;6.00;;;3.20;;
2031;SDS011;27625;50.422;7.944;2023-12-20T11:55:57;6.97;;;4.03;;
2031;SDS011;27625;50.422;7.944;2023-12-20T11:58:24;7.93;;;3.77;;
2031;SDS011;27625;50.422;7.944;2023-12-20T12:00:51;4.93;;;3.10;;
2031;SDS011;27625;50.422;7.944;2023-12-20T12:03:19;9.33;;;3.63;;
2031;SDS011;27625;50.422;7.944;2023-12-20T12:05:47;10.50;;;4.57;;
2031;SDS011;27625;50.422;7.944;2023-12-20T12:08:15;5.70;;;4.10;;
2031;SDS011;27625;50.422;7.944;2023-12-20T12:10:43;5.73;;;3.43;;
2031;SDS011;27625;50.422;7.944;2023-12-20T12:13:13;8.80;;;3.60;;
2031;SDS011;27625;50.422;7.944;2023-12-20T12:15:42;8.27;;;3.77;;
2031;SDS011;27625;50.422;7.944;2023-12-20T12:18:09;8.13;;;3.67;;
2031;SDS011;27625;50.422;7.944;2023-12-20T12:20:36;10.47;;;4.40;;
2031;SDS011;27625;50.422;7.944;2023-12-20T12:23:03;7.67;;;4.93;;
2031;SDS011;27625;50.422;7.944;2023-12-20T12:25:35;13.10;;;4.13;;
2031;SDS011;27625;50.422;7.944;2023-12-20T12:28:03;6.00;;;3.40;;
2031;SDS011;27625;50.422;7.944;2023-12-20T12:30:36;10.80;;;3.97;;
2031;SDS011;27625;50.422;7.944;2023-12-20T12:33:02;4.60;;;3.33;;
2031;SDS011;27625;50.422;7.944;2023-12-20T12:35:30;13.20;;;3.70;;
2031;SDS011;27625;50.422;7.944;2023-12-20T12:37:58;8.70;;;3.83;;
2031;SDS011;27625;50.422;7.944;2023-12-20T12:40:26;7.17;;;3.10;;
2031;SDS011;27625;50.422;7.944;2023-12-20T12:42:57;9.23;;;3.10;;
2031;SDS011;27625;50.422;7.944;2023-12-20T12:45:24;6.90;;;3.07;;
2031;SDS011;27625;50.422;7.944;2023-12-20T12:47:53;14.10;;;3.50;;
2031;SDS011;27625;50.422;7.944;2023-12-20T12:50:20;6.20;;;3.80;;
2031;SDS011;27625;50.422;7.944;2023-12-20T12:52:47;8.70;;;3.83;;
2031;SDS011;27625;50.422;7.944;2023-12-20T12:55:15;7.37;;;4.43;;
2031;SDS011;27625;50.422;7.944;2023-12-20T12:57:42;12.57;;;4.23;;
2031;SDS011;27625;50.422;7.944;2023-12-20T13:00:10;6.60;;;3.40;;
2031;SDS011;27625;50.422;7.944;2023-12-20T13:02:38;10.47;;;4.00;;
2031;SDS011;27625;50.422;7.944;2023-12-20T13:05:07;5.13;;;3.60;;
2031;SDS011;27625;50.422;7.944;2023-12-20T13:07:34;6.07;;;3.20;;
2031;SDS011;27625;50.422;7.944;2023-12-20T13:10:02;6.33;;;3.10;;
2031;SDS011;27625;50.422;7.944;2023-12-20T13:12:32;9.13;;;4.10;;
2031;SDS011;27625;50.422;7.944;2023-12-20T13:14:58;7.20;;;3.93;;
2031;SDS011;27625;50.422;7.944;2023-12-20T13:17:27;8.20;;;3.23;;
2031;SDS011;27625;50.422;7.944;2023-12-20T13:19:53;7.53;;;3.67;;
2031;SDS011;27625;50.422;7.944;2023-12-20T13:22:21;11.03;;;3.50;;
2031;SDS011;27625;50.422;7.944;2023-12-20T13:24:49;10.63;;;3.47;;
2031;SDS011;27625;50.422;7.944;2023-12-20T13:27:16;9.23;;;3.37;;
2031;SDS011;27625;50.422;7.944;2023-12-20T13:29:43;9.07;;;3.30;;
2031;SDS011;27625;50.422;7.944;2023-12-20T13:32:09;4.83;;;3.33;;
2031;SDS011;27625;50.422;7.944;2023-12-20T13:34:37;10.80;;;4.00;;
2031;SDS011;27625;50.422;7.944;2023-12-20T13:37:05;8.17;;;3.77;;
2031;SDS011;27625;50.422;7.944;2023-12-20T13:39:32;6.17;;;3.60;;
2031;SDS011;27625;50.422;7.944;2023-12-20T13:41:59;9.33;;;3.93;;
2031;SDS011;27625;50.422;7.944;2023-12-20T13:44:25;6.90;;;3.50;;
2031;SDS011;27625;50.422;7.944;2023-12-20T13:46:52;7.00;;;4.00;;
2031;SDS011;27625;50.422;7.944;2023-12-20T13:49:19;10.63;;;4.60;;
2031;SDS011;27625;50.422;7.944;2023-12-20T13:51:47;6.93;;;3.67;;
2031;SDS011;27625;50.422;7.944;2023-12-20T13:54:14;9.83;;;4.37;;
2031;SDS011;27625;50.422;7.944;2023-12-20T13:56:42;9.90;;;4.00;;
2031;SDS011;27625;50.422;7.944;2023-12-20T13:59:09;7.13;;;3.97;;
2031;SDS011;27625;50.422;7.944;2023-12-20T14:01:35;6.57;;;4.10;;
2031;SDS011;27625;50.422;7.944;2023-12-20T14:04:02;6.87;;;3.40;;
2031;SDS011;27625;50.422;7.944;2023-12-20T14:06:29;8.53;;;3.70;;
2031;SDS011;27625;50.422;7.944;2023-12-20T14:08:57;6.07;;;3.10;;
2031;SDS011;27625;50.422;7.944;2023-12-20T14:11:25;10.03;;;3.63;;
2031;SDS011;27625;50.422;7.944;2023-12-20T14:13:53;6.87;;;3.60;;
2031;SDS011;27625;50.422;7.944;2023-12-20T14:16:22;5.43;;;3.70;;
2031;SDS011;27625;50.422;7.944;2023-12-20T14:18:50;9.83;;;4.80;;
2031;SDS011;27625;50.422;7.944;2023-12-20T14:21:18;11.17;;;5.83;;
2031;SDS011;27625;50.422;7.944;2023-12-20T14:23:45;9.63;;;4.30;;
2031;SDS011;27625;50.422;7.944;2023-12-20T14:26:19;8.37;;;5.47;;
2031;SDS011;27625;50.422;7.944;2023-12-20T14:28:46;6.17;;;4.73;;
2031;SDS011;27625;50.422;7.944;2023-12-20T14:31:15;9.87;;;4.63;;
2031;SDS011;27625;50.422;7.944;2023-12-20T14:33:41;16.10;;;6.83;;
2031;SDS011;27625;50.422;7.944;2023-12-20T14:36:12;8.30;;;4.40;;
2031;SDS011;27625;50.422;7.944;2023-12-20T14:38:39;10.33;;;3.57;;
2031;SDS011;27625;50.422;7.944;2023-12-20T14:41:06;8.80;;;5.40;;
2031;SDS011;27625;50.422;7.944;2023-12-20T14:43:35;8.70;;;5.30;;
2031;SDS011;27625;50.422;7.944;2023-12-20T14:46:02;8.83;;;4.40;;
2031;SDS011;27625;50.422;7.944;2023-12-20T14:48:38;8.33;;;4.70;;
2031;SDS011;27625;50.422;7.944;2023-12-20T14:51:07;9.53;;;4.97;;
2031;SDS011;27625;50.422;7.944;2023-12-20T14:53:35;10.40;;;4.20;;
2031;SDS011;27625;50.422;7.944;2023-12-20T14:56:09;11.67;;;5.20;;
2031;SDS011;27625;50.422;7.944;2023-12-20T14:58:39;4.47;;;2.87;;
2031;SDS011;27625;50.422;7.944;2023-12-20T15:01:08;11.43;;;3.83;;
2031;SDS011;27625;50.422;7.944;2023-12-20T15:03:41;4.97;;;3.47;;
2031;SDS011;27625;50.422;7.944;2023-12-20T15:06:18;5.73;;;3.30;;
2031;SDS011;27625;50.422;7.944;2023-12-20T15:08:53;6.30;;;3.90;;
2031;SDS011;27625;50.422;7.944;2023-12-20T15:11:34;7.17;;;3.97;;
2031;SDS011;27625;50.422;7.944;2023-12-20T15:16:37;8.20;;;3.63;;
2031;SDS011;27625;50.422;7.944;2023-12-20T15:19:03;6.87;;;3.33;;
2031;SDS011;27625;50.422;7.944;2023-12-20T15:21:31;6.70;;;3.60;;
2031;SDS011;27625;50.422;7.944;2023-12-20T15:27:14;6.77;;;4.10;;
2031;SDS011;27625;50.422;7.944;2023-12-20T15:29:44;10.40;;;3.83;;
2031;SDS011;27625;50.422;7.944;2023-12-20T15:32:13;10.10;;;3.23;;